sensor_id;sensor_type;location;lat;lon;timestamp;P1;durP1;ratioP1;P2;durP2;ratioP2
67839;SDS011;54636;51.684;5.142;2022-12-19T00:01:10;35.17;;;20.77;;
67839;SDS011;54636;51.684;5.142;2022-12-19T00:03:44;37.47;;;21.15;;
67839;SDS011;54636;51.684;5.142;2022-12-19T00:08:36;28.27;;;16.23;;
67839;SDS011;54636;51.684;5.142;2022-12-19T00:11:02;26.25;;;14.95;;
67839;SDS011;54636;51.684;5.142;2022-12-19T00:13:29;39.22;;;21.17;;
67839;SDS011;54636;51.684;5.142;2022-12-19T00:15:59;28.70;;;16.23;;
67839;SDS011;54636;51.684;5.142;2022-12-19T00:18:26;33.13;;;18.95;;
67839;SDS011;54636;51.684;5.142;2022-12-19T00:20:55;19.90;;;14.00;;
67839;SDS011;54636;51.684;5.142;2022-12-19T00:23:25;37.80;;;21.20;;
67839;SDS011;54636;51.684;5.142;2022-12-19T00:25:52;35.63;;;20.10;;
67839;SDS011;54636;51.684;5.142;2022-12-19T00:28:18;26.15;;;15.52;;
67839;SDS011;54636;51.684;5.142;2022-12-19T00:30:43;32.38;;;17.48;;
67839;SDS011;54636;51.684;5.142;2022-12-19T00:33:09;31.83;;;18.58;;
67839;SDS011;54636;51.684;5.142;2022-12-19T00:35:34;38.95;;;22.83;;
67839;SDS011;54636;51.684;5.142;2022-12-19T00:37:59;47.03;;;24.67;;
67839;SDS011;54636;51.684;5.142;2022-12-19T00:40:25;34.95;;;18.38;;
67839;SDS011;54636;51.684;5.142;2022-12-19T00:42:50;42.65;;;20.65;;
67839;SDS011;54636;51.684;5.142;2022-12-19T00:45:15;37.38;;;18.95;;
67839;SDS011;54636;51.684;5.142;2022-12-19T00:47:41;33.13;;;18.80;;
67839;SDS011;54636;51.684;5.142;2022-12-19T00:50:06;37.00;;;20.85;;
67839;SDS011;54636;51.684;5.142;2022-12-19T00:52:32;33.40;;;19.67;;
67839;SDS011;54636;51.684;5.142;2022-12-19T00:54:58;32.80;;;19.00;;
67839;SDS011;54636;51.684;5.142;2022-12-19T00:57:23;26.45;;;15.73;;
67839;SDS011;54636;51.684;5.142;2022-12-19T00:59:48;30.55;;;16.52;;
67839;SDS011;54636;51.684;5.142;2022-12-19T01:02:16;40.63;;;21.00;;
67839;SDS011;54636;51.684;5.142;2022-12-19T01:04:42;37.38;;;20.08;;
67839;SDS011;54636;51.684;5.142;2022-12-19T01:07:07;35.58;;;20.73;;
67839;SDS011;54636;51.684;5.142;2022-12-19T01:09:33;23.60;;;13.80;;
67839;SDS011;54636;51.684;5.142;2022-12-19T01:12:00;43.53;;;21.27;;
67839;SDS011;54636;51.684;5.142;2022-12-19T01:14:44;27.77;;;17.38;;
67839;SDS011;54636;51.684;5.142;2022-12-19T01:17:10;35.53;;;19.27;;
67839;SDS011;54636;51.684;5.142;2022-12-19T01:19:35;28.15;;;15.82;;
67839;SDS011;54636;51.684;5.142;2022-12-19T01:22:00;36.40;;;19.77;;
67839;SDS011;54636;51.684;5.142;2022-12-19T01:24:26;38.47;;;21.25;;
67839;SDS011;54636;51.684;5.142;2022-12-19T01:26:51;39.78;;;19.90;;
67839;SDS011;54636;51.684;5.142;2022-12-19T01:29:16;32.50;;;17.88;;
67839;SDS011;54636;51.684;5.142;2022-12-19T01:31:42;35.10;;;19.42;;
67839;SDS011;54636;51.684;5.142;2022-12-19T01:34:07;31.63;;;17.63;;
67839;SDS011;54636;51.684;5.142;2022-12-19T01:36:33;22.83;;;13.02;;
67839;SDS011;54636;51.684;5.142;2022-12-19T01:38:59;23.90;;;15.10;;
67839;SDS011;54636;51.684;5.142;2022-12-19T01:41:25;34.60;;;18.90;;
67839;SDS011;54636;51.684;5.142;2022-12-19T01:46:29;37.65;;;19.20;;
67839;SDS011;54636;51.684;5.142;2022-12-19T01:49:20;27.95;;;14.82;;
67839;SDS011;54636;51.684;5.142;2022-12-19T01:52:00;26.40;;;14.95;;
67839;SDS011;54636;51.684;5.142;2022-12-19T01:54:30;27.10;;;15.02;;
67839;SDS011;54636;51.684;5.142;2022-12-19T01:56:58;18.23;;;11.30;;
67839;SDS011;54636;51.684;5.142;2022-12-19T02:04:57;32.67;;;18.65;;
67839;SDS011;54636;51.684;5.142;2022-12-19T02:07:22;26.33;;;16.58;;
67839;SDS011;54636;51.684;5.142;2022-12-19T02:09:51;29.77;;;15.60;;
67839;SDS011;54636;51.684;5.142;2022-12-19T02:12:19;36.00;;;18.52;;
67839;SDS011;54636;51.684;5.142;2022-12-19T02:14:45;29.65;;;15.77;;
67839;SDS011;54636;51.684;5.142;2022-12-19T02:17:22;36.60;;;18.35;;
67839;SDS011;54636;51.684;5.142;2022-12-19T02:28:23;24.52;;;14.60;;
67839;SDS011;54636;51.684;5.142;2022-12-19T02:36:25;29.70;;;16.73;;
67839;SDS011;54636;51.684;5.142;2022-12-19T02:39:07;29.77;;;16.83;;
67839;SDS011;54636;51.684;5.142;2022-12-19T02:42:00;25.45;;;13.73;;
67839;SDS011;54636;51.684;5.142;2022-12-19T02:46:59;35.13;;;18.10;;
67839;SDS011;54636;51.684;5.142;2022-12-19T02:49:27;24.58;;;13.80;;
67839;SDS011;54636;51.684;5.142;2022-12-19T02:51:53;23.15;;;14.52;;
67839;SDS011;54636;51.684;5.142;2022-12-19T02:54:19;21.15;;;11.85;;
67839;SDS011;54636;51.684;5.142;2022-12-19T02:56:52;27.95;;;16.02;;
67839;SDS011;54636;51.684;5.142;2022-12-19T03:07:54;22.70;;;14.25;;
67839;SDS011;54636;51.684;5.142;2022-12-19T03:10:37;28.65;;;16.15;;
67839;SDS011;54636;51.684;5.142;2022-12-19T03:13:08;29.23;;;16.52;;
67839;SDS011;54636;51.684;5.142;2022-12-19T03:15:34;18.67;;;12.50;;
67839;SDS011;54636;51.684;5.142;2022-12-19T03:18:02;21.02;;;11.55;;
67839;SDS011;54636;51.684;5.142;2022-12-19T03:23:08;22.83;;;13.05;;
67839;SDS011;54636;51.684;5.142;2022-12-19T03:25:35;22.23;;;14.27;;
67839;SDS011;54636;51.684;5.142;2022-12-19T03:28:03;23.88;;;13.00;;
67839;SDS011;54636;51.684;5.142;2022-12-19T03:30:35;23.05;;;13.25;;
67839;SDS011;54636;51.684;5.142;2022-12-19T03:33:03;20.00;;;11.32;;
67839;SDS011;54636;51.684;5.142;2022-12-19T03:35:30;20.40;;;13.40;;
67839;SDS011;54636;51.684;5.142;2022-12-19T03:38:00;22.17;;;13.52;;
67839;SDS011;54636;51.684;5.142;2022-12-19T03:40:28;18.05;;;10.65;;
67839;SDS011;54636;51.684;5.142;2022-12-19T03:42:58;21.05;;;12.05;;
67839;SDS011;54636;51.684;5.142;2022-12-19T03:58:59;13.77;;;9.23;;
67839;SDS011;54636;51.684;5.142;2022-12-19T04:01:29;17.52;;;9.18;;
67839;SDS011;54636;51.684;5.142;2022-12-19T04:03:58;18.38;;;11.50;;
67839;SDS011;54636;51.684;5.142;2022-12-19T04:06:26;9.80;;;7.55;;
67839;SDS011;54636;51.684;5.142;2022-12-19T04:08:54;12.38;;;9.88;;
67839;SDS011;54636;51.684;5.142;2022-12-19T04:11:21;19.15;;;11.32;;
67839;SDS011;54636;51.684;5.142;2022-12-19T04:13:56;18.00;;;11.68;;
67839;SDS011;54636;51.684;5.142;2022-12-19T04:16:33;15.18;;;10.50;;
67839;SDS011;54636;51.684;5.142;2022-12-19T04:19:12;12.13;;;7.05;;
67839;SDS011;54636;51.684;5.142;2022-12-19T04:21:52;12.63;;;9.07;;
67839;SDS011;54636;51.684;5.142;2022-12-19T04:24:28;17.95;;;10.50;;
67839;SDS011;54636;51.684;5.142;2022-12-19T04:26:57;15.05;;;10.23;;
67839;SDS011;54636;51.684;5.142;2022-12-19T04:29:25;13.82;;;9.57;;
67839;SDS011;54636;51.684;5.142;2022-12-19T04:31:55;14.90;;;9.20;;
67839;SDS011;54636;51.684;5.142;2022-12-19T04:34:20;11.98;;;9.68;;
67839;SDS011;54636;51.684;5.142;2022-12-19T04:36:46;15.98;;;8.88;;
67839;SDS011;54636;51.684;5.142;2022-12-19T04:39:14;17.63;;;11.05;;
67839;SDS011;54636;51.684;5.142;2022-12-19T04:41:39;11.23;;;9.13;;
67839;SDS011;54636;51.684;5.142;2022-12-19T04:44:04;10.38;;;8.45;;
67839;SDS011;54636;51.684;5.142;2022-12-19T04:46:30;13.52;;;10.00;;
67839;SDS011;54636;51.684;5.142;2022-12-19T04:48:55;11.50;;;7.82;;
67839;SDS011;54636;51.684;5.142;2022-12-19T04:51:21;9.55;;;7.15;;
67839;SDS011;54636;51.684;5.142;2022-12-19T04:53:46;6.57;;;5.70;;
67839;SDS011;54636;51.684;5.142;2022-12-19T04:56:11;12.75;;;9.32;;
67839;SDS011;54636;51.684;5.142;2022-12-19T04:58:37;7.60;;;6.82;;
67839;SDS011;54636;51.684;5.142;2022-12-19T05:01:03;11.02;;;8.55;;
67839;SDS011;54636;51.684;5.142;2022-12-19T05:03:30;10.82;;;7.95;;
67839;SDS011;54636;51.684;5.142;2022-12-19T05:06:06;8.77;;;7.03;;
67839;SDS011;54636;51.684;5.142;2022-12-19T05:08:39;8.45;;;7.00;;
67839;SDS011;54636;51.684;5.142;2022-12-19T05:11:07;8.95;;;7.32;;
67839;SDS011;54636;51.684;5.142;2022-12-19T05:13:33;9.35;;;8.30;;
67839;SDS011;54636;51.684;5.142;2022-12-19T05:16:00;8.43;;;7.57;;
67839;SDS011;54636;51.684;5.142;2022-12-19T05:18:27;10.15;;;8.15;;
67839;SDS011;54636;51.684;5.142;2022-12-19T05:20:54;12.10;;;8.50;;
67839;SDS011;54636;51.684;5.142;2022-12-19T05:23:22;5.15;;;4.65;;
67839;SDS011;54636;51.684;5.142;2022-12-19T05:25:48;8.50;;;5.95;;
67839;SDS011;54636;51.684;5.142;2022-12-19T05:28:14;7.03;;;5.57;;
67839;SDS011;54636;51.684;5.142;2022-12-19T05:30:40;11.30;;;8.57;;
67839;SDS011;54636;51.684;5.142;2022-12-19T05:33:06;11.95;;;8.90;;
67839;SDS011;54636;51.684;5.142;2022-12-19T05:35:32;13.55;;;8.35;;
67839;SDS011;54636;51.684;5.142;2022-12-19T05:37:58;14.10;;;8.98;;
67839;SDS011;54636;51.684;5.142;2022-12-19T05:40:23;7.75;;;6.80;;
67839;SDS011;54636;51.684;5.142;2022-12-19T05:42:49;7.38;;;6.22;;
67839;SDS011;54636;51.684;5.142;2022-12-19T05:45:14;11.35;;;9.38;;
67839;SDS011;54636;51.684;5.142;2022-12-19T05:47:39;12.02;;;9.32;;
67839;SDS011;54636;51.684;5.142;2022-12-19T05:50:07;16.77;;;10.02;;
67839;SDS011;54636;51.684;5.142;2022-12-19T05:52:33;12.07;;;8.15;;
67839;SDS011;54636;51.684;5.142;2022-12-19T05:55:00;13.35;;;9.52;;
67839;SDS011;54636;51.684;5.142;2022-12-19T05:57:25;4.72;;;4.22;;
67839;SDS011;54636;51.684;5.142;2022-12-19T05:59:51;13.77;;;9.57;;
67839;SDS011;54636;51.684;5.142;2022-12-19T06:02:16;6.72;;;5.75;;
67839;SDS011;54636;51.684;5.142;2022-12-19T06:04:41;8.35;;;7.00;;
67839;SDS011;54636;51.684;5.142;2022-12-19T06:07:07;12.20;;;9.27;;
67839;SDS011;54636;51.684;5.142;2022-12-19T06:09:33;11.32;;;8.07;;
67839;SDS011;54636;51.684;5.142;2022-12-19T06:12:01;11.35;;;8.98;;
67839;SDS011;54636;51.684;5.142;2022-12-19T06:14:26;7.75;;;6.13;;
67839;SDS011;54636;51.684;5.142;2022-12-19T06:16:52;11.93;;;9.15;;
67839;SDS011;54636;51.684;5.142;2022-12-19T06:19:17;11.30;;;8.80;;
67839;SDS011;54636;51.684;5.142;2022-12-19T06:21:42;9.82;;;8.10;;
67839;SDS011;54636;51.684;5.142;2022-12-19T06:24:08;11.10;;;7.72;;
67839;SDS011;54636;51.684;5.142;2022-12-19T06:26:33;10.13;;;8.32;;
67839;SDS011;54636;51.684;5.142;2022-12-19T06:28:59;8.55;;;7.43;;
67839;SDS011;54636;51.684;5.142;2022-12-19T06:31:24;15.73;;;8.75;;
67839;SDS011;54636;51.684;5.142;2022-12-19T06:33:50;12.48;;;9.15;;
67839;SDS011;54636;51.684;5.142;2022-12-19T06:36:25;6.85;;;6.20;;
67839;SDS011;54636;51.684;5.142;2022-12-19T06:38:52;10.07;;;8.43;;
67839;SDS011;54636;51.684;5.142;2022-12-19T06:41:19;8.88;;;7.13;;
67839;SDS011;54636;51.684;5.142;2022-12-19T06:44:07;12.18;;;8.00;;
67839;SDS011;54636;51.684;5.142;2022-12-19T06:46:35;14.27;;;8.60;;
67839;SDS011;54636;51.684;5.142;2022-12-19T06:49:01;10.10;;;8.50;;
67839;SDS011;54636;51.684;5.142;2022-12-19T06:51:27;8.85;;;7.95;;
67839;SDS011;54636;51.684;5.142;2022-12-19T06:53:53;10.38;;;9.25;;
67839;SDS011;54636;51.684;5.142;2022-12-19T06:56:18;10.20;;;8.25;;
67839;SDS011;54636;51.684;5.142;2022-12-19T06:58:44;9.95;;;7.82;;
67839;SDS011;54636;51.684;5.142;2022-12-19T07:01:20;9.98;;;7.80;;
67839;SDS011;54636;51.684;5.142;2022-12-19T07:03:57;8.30;;;6.25;;
67839;SDS011;54636;51.684;5.142;2022-12-19T07:06:23;10.65;;;7.78;;
67839;SDS011;54636;51.684;5.142;2022-12-19T07:08:48;9.13;;;7.45;;
67839;SDS011;54636;51.684;5.142;2022-12-19T07:11:14;8.55;;;7.70;;
67839;SDS011;54636;51.684;5.142;2022-12-19T07:13:39;9.82;;;8.82;;
67839;SDS011;54636;51.684;5.142;2022-12-19T07:16:05;10.10;;;8.25;;
67839;SDS011;54636;51.684;5.142;2022-12-19T07:18:33;9.40;;;6.70;;
67839;SDS011;54636;51.684;5.142;2022-12-19T07:21:02;7.90;;;6.85;;
67839;SDS011;54636;51.684;5.142;2022-12-19T07:23:35;7.88;;;6.80;;
67839;SDS011;54636;51.684;5.142;2022-12-19T07:26:02;12.50;;;8.35;;
67839;SDS011;54636;51.684;5.142;2022-12-19T07:28:31;8.35;;;6.40;;
67839;SDS011;54636;51.684;5.142;2022-12-19T07:30:58;14.25;;;7.75;;
67839;SDS011;54636;51.684;5.142;2022-12-19T07:33:26;13.07;;;8.80;;
67839;SDS011;54636;51.684;5.142;2022-12-19T07:35:55;6.05;;;5.50;;
67839;SDS011;54636;51.684;5.142;2022-12-19T07:38:20;10.50;;;8.05;;
67839;SDS011;54636;51.684;5.142;2022-12-19T07:40:45;13.40;;;8.27;;
67839;SDS011;54636;51.684;5.142;2022-12-19T07:43:11;10.07;;;8.23;;
67839;SDS011;54636;51.684;5.142;2022-12-19T07:45:37;11.48;;;8.20;;
67839;SDS011;54636;51.684;5.142;2022-12-19T07:48:03;14.98;;;8.05;;
67839;SDS011;54636;51.684;5.142;2022-12-19T07:50:31;6.55;;;5.90;;
67839;SDS011;54636;51.684;5.142;2022-12-19T07:52:57;13.10;;;7.40;;
67839;SDS011;54636;51.684;5.142;2022-12-19T07:55:23;10.60;;;7.55;;
67839;SDS011;54636;51.684;5.142;2022-12-19T07:57:49;11.93;;;8.57;;
67839;SDS011;54636;51.684;5.142;2022-12-19T08:00:14;11.73;;;6.55;;
67839;SDS011;54636;51.684;5.142;2022-12-19T08:02:41;6.10;;;5.53;;
67839;SDS011;54636;51.684;5.142;2022-12-19T08:05:06;20.25;;;6.85;;
67839;SDS011;54636;51.684;5.142;2022-12-19T08:07:32;9.07;;;6.30;;
67839;SDS011;54636;51.684;5.142;2022-12-19T08:09:57;6.38;;;5.72;;
67839;SDS011;54636;51.684;5.142;2022-12-19T08:12:23;3.45;;;3.15;;
67839;SDS011;54636;51.684;5.142;2022-12-19T08:14:50;7.47;;;6.70;;
67839;SDS011;54636;51.684;5.142;2022-12-19T08:17:15;4.90;;;3.85;;
67839;SDS011;54636;51.684;5.142;2022-12-19T08:19:41;7.97;;;6.70;;
67839;SDS011;54636;51.684;5.142;2022-12-19T08:22:06;8.57;;;5.90;;
67839;SDS011;54636;51.684;5.142;2022-12-19T08:24:31;6.30;;;5.70;;
67839;SDS011;54636;51.684;5.142;2022-12-19T08:26:57;7.32;;;6.07;;
67839;SDS011;54636;51.684;5.142;2022-12-19T08:29:22;6.55;;;5.38;;
67839;SDS011;54636;51.684;5.142;2022-12-19T08:31:48;7.55;;;5.15;;
67839;SDS011;54636;51.684;5.142;2022-12-19T08:34:14;7.38;;;6.65;;
67839;SDS011;54636;51.684;5.142;2022-12-19T08:36:39;7.03;;;6.25;;
67839;SDS011;54636;51.684;5.142;2022-12-19T08:39:05;8.20;;;6.82;;
67839;SDS011;54636;51.684;5.142;2022-12-19T08:41:31;3.92;;;3.63;;
67839;SDS011;54636;51.684;5.142;2022-12-19T08:43:56;12.65;;;6.85;;
67839;SDS011;54636;51.684;5.142;2022-12-19T08:46:22;7.45;;;6.75;;
67839;SDS011;54636;51.684;5.142;2022-12-19T08:48:51;8.75;;;4.68;;
67839;SDS011;54636;51.684;5.142;2022-12-19T08:51:16;5.65;;;5.15;;
67839;SDS011;54636;51.684;5.142;2022-12-19T08:53:43;6.25;;;5.72;;
67839;SDS011;54636;51.684;5.142;2022-12-19T08:58:54;5.47;;;4.00;;
67839;SDS011;54636;51.684;5.142;2022-12-19T09:01:20;4.75;;;4.25;;
67839;SDS011;54636;51.684;5.142;2022-12-19T09:03:47;6.43;;;4.95;;
67839;SDS011;54636;51.684;5.142;2022-12-19T09:06:14;7.95;;;5.97;;
67839;SDS011;54636;51.684;5.142;2022-12-19T09:08:42;7.47;;;4.45;;
67839;SDS011;54636;51.684;5.142;2022-12-19T09:11:11;6.72;;;5.05;;
67839;SDS011;54636;51.684;5.142;2022-12-19T09:13:39;5.55;;;5.05;;
67839;SDS011;54636;51.684;5.142;2022-12-19T09:18:55;8.07;;;5.88;;
67839;SDS011;54636;51.684;5.142;2022-12-19T09:21:26;4.25;;;3.85;;
67839;SDS011;54636;51.684;5.142;2022-12-19T09:23:54;6.47;;;5.88;;
67839;SDS011;54636;51.684;5.142;2022-12-19T09:26:22;6.55;;;5.80;;
67839;SDS011;54636;51.684;5.142;2022-12-19T09:28:50;7.85;;;6.32;;
67839;SDS011;54636;51.684;5.142;2022-12-19T09:31:18;7.82;;;6.28;;
67839;SDS011;54636;51.684;5.142;2022-12-19T09:33:45;4.53;;;4.13;;
67839;SDS011;54636;51.684;5.142;2022-12-19T09:36:12;7.05;;;6.35;;
67839;SDS011;54636;51.684;5.142;2022-12-19T09:38:39;6.55;;;6.05;;
67839;SDS011;54636;51.684;5.142;2022-12-19T09:43:48;9.30;;;6.03;;
67839;SDS011;54636;51.684;5.142;2022-12-19T09:46:47;6.70;;;5.85;;
67839;SDS011;54636;51.684;5.142;2022-12-19T09:49:17;7.82;;;6.10;;
67839;SDS011;54636;51.684;5.142;2022-12-19T09:54:26;5.97;;;5.32;;
67839;SDS011;54636;51.684;5.142;2022-12-19T09:57:05;6.57;;;5.75;;
67839;SDS011;54636;51.684;5.142;2022-12-19T09:59:43;5.32;;;4.75;;
67839;SDS011;54636;51.684;5.142;2022-12-19T10:07:54;4.53;;;3.83;;
67839;SDS011;54636;51.684;5.142;2022-12-19T10:10:41;6.38;;;4.43;;
67839;SDS011;54636;51.684;5.142;2022-12-19T10:13:31;4.95;;;4.40;;
67839;SDS011;54636;51.684;5.142;2022-12-19T10:16:05;13.38;;;3.63;;
67839;SDS011;54636;51.684;5.142;2022-12-19T10:18:52;6.07;;;5.38;;
67839;SDS011;54636;51.684;5.142;2022-12-19T10:24:11;4.55;;;3.63;;
67839;SDS011;54636;51.684;5.142;2022-12-19T10:26:51;3.85;;;3.42;;
67839;SDS011;54636;51.684;5.142;2022-12-19T10:32:14;7.05;;;4.35;;
67839;SDS011;54636;51.684;5.142;2022-12-19T10:34:44;4.78;;;4.30;;
67839;SDS011;54636;51.684;5.142;2022-12-19T10:40:18;5.40;;;3.53;;
67839;SDS011;54636;51.684;5.142;2022-12-19T10:42:52;4.22;;;3.92;;
67839;SDS011;54636;51.684;5.142;2022-12-19T10:45:54;5.07;;;4.28;;
67839;SDS011;54636;51.684;5.142;2022-12-19T10:48:43;6.30;;;5.00;;
67839;SDS011;54636;51.684;5.142;2022-12-19T10:51:23;4.93;;;4.25;;
67839;SDS011;54636;51.684;5.142;2022-12-19T10:57:50;4.18;;;3.85;;
67839;SDS011;54636;51.684;5.142;2022-12-19T11:00:16;3.83;;;3.53;;
67839;SDS011;54636;51.684;5.142;2022-12-19T11:02:43;7.22;;;4.55;;
67839;SDS011;54636;51.684;5.142;2022-12-19T11:12:59;20.50;;;5.53;;
67839;SDS011;54636;51.684;5.142;2022-12-19T11:15:25;5.07;;;4.55;;
67839;SDS011;54636;51.684;5.142;2022-12-19T11:17:50;3.20;;;2.90;;
67839;SDS011;54636;51.684;5.142;2022-12-19T11:20:20;4.05;;;3.38;;
67839;SDS011;54636;51.684;5.142;2022-12-19T11:22:56;5.63;;;4.63;;
67839;SDS011;54636;51.684;5.142;2022-12-19T11:25:36;4.70;;;3.97;;
67839;SDS011;54636;51.684;5.142;2022-12-19T11:31:20;5.95;;;3.05;;
67839;SDS011;54636;51.684;5.142;2022-12-19T11:33:52;3.80;;;3.47;;
67839;SDS011;54636;51.684;5.142;2022-12-19T11:36:27;4.47;;;3.83;;
67839;SDS011;54636;51.684;5.142;2022-12-19T11:39:00;5.43;;;3.53;;
67839;SDS011;54636;51.684;5.142;2022-12-19T11:41:38;5.40;;;3.40;;
67839;SDS011;54636;51.684;5.142;2022-12-19T11:44:19;4.03;;;3.72;;
67839;SDS011;54636;51.684;5.142;2022-12-19T11:53:16;3.63;;;3.35;;
67839;SDS011;54636;51.684;5.142;2022-12-19T11:55:42;4.70;;;3.65;;
67839;SDS011;54636;51.684;5.142;2022-12-19T11:58:15;4.00;;;3.53;;
67839;SDS011;54636;51.684;5.142;2022-12-19T12:01:01;4.28;;;3.50;;
67839;SDS011;54636;51.684;5.142;2022-12-19T12:03:53;3.25;;;2.80;;
67839;SDS011;54636;51.684;5.142;2022-12-19T12:06:25;3.35;;;2.97;;
67839;SDS011;54636;51.684;5.142;2022-12-19T12:08:57;5.47;;;3.83;;
67839;SDS011;54636;51.684;5.142;2022-12-19T12:11:42;3.58;;;3.28;;
67839;SDS011;54636;51.684;5.142;2022-12-19T12:14:37;7.30;;;3.70;;
67839;SDS011;54636;51.684;5.142;2022-12-19T12:20:38;5.43;;;3.22;;
67839;SDS011;54636;51.684;5.142;2022-12-19T12:23:06;5.28;;;3.22;;
67839;SDS011;54636;51.684;5.142;2022-12-19T12:31:36;3.53;;;3.20;;
67839;SDS011;54636;51.684;5.142;2022-12-19T12:37:01;5.40;;;3.53;;
67839;SDS011;54636;51.684;5.142;2022-12-19T12:40:01;3.83;;;3.47;;
67839;SDS011;54636;51.684;5.142;2022-12-19T12:45:26;3.72;;;3.08;;
67839;SDS011;54636;51.684;5.142;2022-12-19T12:48:03;5.93;;;3.58;;
67839;SDS011;54636;51.684;5.142;2022-12-19T12:50:38;5.10;;;3.17;;
67839;SDS011;54636;51.684;5.142;2022-12-19T12:53:06;3.10;;;2.80;;
67839;SDS011;54636;51.684;5.142;2022-12-19T12:55:35;3.20;;;3.00;;
67839;SDS011;54636;51.684;5.142;2022-12-19T13:01:36;4.28;;;2.47;;
67839;SDS011;54636;51.684;5.142;2022-12-19T13:06:39;3.60;;;2.65;;
67839;SDS011;54636;51.684;5.142;2022-12-19T13:09:28;4.47;;;3.00;;
67839;SDS011;54636;51.684;5.142;2022-12-19T13:12:10;2.50;;;2.40;;
67839;SDS011;54636;51.684;5.142;2022-12-19T13:15:15;6.18;;;2.65;;
67839;SDS011;54636;51.684;5.142;2022-12-19T13:26:03;3.67;;;3.25;;
67839;SDS011;54636;51.684;5.142;2022-12-19T13:39:33;3.35;;;2.78;;
67839;SDS011;54636;51.684;5.142;2022-12-19T13:42:15;5.00;;;3.28;;
67839;SDS011;54636;51.684;5.142;2022-12-19T13:45:06;3.40;;;2.55;;
67839;SDS011;54636;51.684;5.142;2022-12-19T13:47:38;2.80;;;2.60;;
67839;SDS011;54636;51.684;5.142;2022-12-19T13:50:17;11.47;;;2.53;;
67839;SDS011;54636;51.684;5.142;2022-12-19T13:52:49;3.05;;;2.45;;
67839;SDS011;54636;51.684;5.142;2022-12-19T13:55:15;2.45;;;2.25;;
67839;SDS011;54636;51.684;5.142;2022-12-19T13:57:41;5.15;;;2.80;;
67839;SDS011;54636;51.684;5.142;2022-12-19T14:00:07;5.13;;;2.78;;
67839;SDS011;54636;51.684;5.142;2022-12-19T14:02:39;2.83;;;2.67;;
67839;SDS011;54636;51.684;5.142;2022-12-19T14:05:30;2.33;;;2.22;;
67839;SDS011;54636;51.684;5.142;2022-12-19T14:08:02;2.80;;;2.60;;
67839;SDS011;54636;51.684;5.142;2022-12-19T14:10:34;3.72;;;2.47;;
67839;SDS011;54636;51.684;5.142;2022-12-19T14:13:04;2.25;;;1.77;;
67839;SDS011;54636;51.684;5.142;2022-12-19T14:15:53;3.40;;;2.97;;
67839;SDS011;54636;51.684;5.142;2022-12-19T14:18:19;9.48;;;2.63;;
67839;SDS011;54636;51.684;5.142;2022-12-19T14:20:50;4.43;;;2.40;;
67839;SDS011;54636;51.684;5.142;2022-12-19T14:23:36;1.88;;;1.77;;
67839;SDS011;54636;51.684;5.142;2022-12-19T14:26:01;2.65;;;2.00;;
67839;SDS011;54636;51.684;5.142;2022-12-19T14:28:41;4.43;;;2.20;;
67839;SDS011;54636;51.684;5.142;2022-12-19T14:31:10;3.55;;;2.30;;
67839;SDS011;54636;51.684;5.142;2022-12-19T14:33:49;2.08;;;1.98;;
67839;SDS011;54636;51.684;5.142;2022-12-19T14:36:21;5.32;;;2.60;;
67839;SDS011;54636;51.684;5.142;2022-12-19T14:38:52;3.33;;;2.25;;
67839;SDS011;54636;51.684;5.142;2022-12-19T14:46:38;2.40;;;1.73;;
67839;SDS011;54636;51.684;5.142;2022-12-19T14:49:22;5.13;;;2.60;;
67839;SDS011;54636;51.684;5.142;2022-12-19T14:51:58;2.97;;;2.13;;
67839;SDS011;54636;51.684;5.142;2022-12-19T14:54:27;3.60;;;2.25;;
67839;SDS011;54636;51.684;5.142;2022-12-19T14:56:54;3.30;;;2.90;;
67839;SDS011;54636;51.684;5.142;2022-12-19T15:04:38;6.75;;;2.40;;
67839;SDS011;54636;51.684;5.142;2022-12-19T15:07:12;5.82;;;2.70;;
67839;SDS011;54636;51.684;5.142;2022-12-19T15:12:11;3.75;;;2.33;;
67839;SDS011;54636;51.684;5.142;2022-12-19T15:15:01;2.83;;;2.22;;
67839;SDS011;54636;51.684;5.142;2022-12-19T15:17:49;3.30;;;2.13;;
67839;SDS011;54636;51.684;5.142;2022-12-19T15:20:16;3.95;;;2.22;;
67839;SDS011;54636;51.684;5.142;2022-12-19T15:22:42;2.70;;;2.13;;
67839;SDS011;54636;51.684;5.142;2022-12-19T15:25:11;2.80;;;2.08;;
67839;SDS011;54636;51.684;5.142;2022-12-19T15:27:39;2.95;;;2.67;;
67839;SDS011;54636;51.684;5.142;2022-12-19T15:30:17;3.22;;;2.25;;
67839;SDS011;54636;51.684;5.142;2022-12-19T15:32:45;2.65;;;2.45;;
67839;SDS011;54636;51.684;5.142;2022-12-19T15:35:16;3.22;;;2.17;;
67839;SDS011;54636;51.684;5.142;2022-12-19T15:37:43;3.03;;;2.72;;
67839;SDS011;54636;51.684;5.142;2022-12-19T15:40:13;3.28;;;1.92;;
67839;SDS011;54636;51.684;5.142;2022-12-19T15:42:41;5.78;;;2.65;;
67839;SDS011;54636;51.684;5.142;2022-12-19T15:45:15;1.92;;;1.55;;
67839;SDS011;54636;51.684;5.142;2022-12-19T15:47:43;5.40;;;2.60;;
67839;SDS011;54636;51.684;5.142;2022-12-19T15:50:30;3.35;;;2.38;;
67839;SDS011;54636;51.684;5.142;2022-12-19T15:52:56;3.50;;;2.38;;
67839;SDS011;54636;51.684;5.142;2022-12-19T15:55:24;2.75;;;1.65;;
67839;SDS011;54636;51.684;5.142;2022-12-19T15:57:55;4.75;;;2.40;;
67839;SDS011;54636;51.684;5.142;2022-12-19T16:00:24;4.57;;;2.30;;
67839;SDS011;54636;51.684;5.142;2022-12-19T16:02:52;3.13;;;2.70;;
67839;SDS011;54636;51.684;5.142;2022-12-19T16:05:19;3.78;;;2.30;;
67839;SDS011;54636;51.684;5.142;2022-12-19T16:07:46;4.25;;;2.40;;
67839;SDS011;54636;51.684;5.142;2022-12-19T16:10:12;3.30;;;2.20;;
67839;SDS011;54636;51.684;5.142;2022-12-19T16:12:47;3.33;;;2.38;;
67839;SDS011;54636;51.684;5.142;2022-12-19T16:17:54;2.40;;;1.67;;
67839;SDS011;54636;51.684;5.142;2022-12-19T16:20:22;3.80;;;2.65;;
67839;SDS011;54636;51.684;5.142;2022-12-19T16:22:49;11.77;;;2.33;;
67839;SDS011;54636;51.684;5.142;2022-12-19T16:25:15;3.70;;;2.95;;
67839;SDS011;54636;51.684;5.142;2022-12-19T16:27:41;3.35;;;2.70;;
67839;SDS011;54636;51.684;5.142;2022-12-19T16:30:15;7.15;;;3.13;;
67839;SDS011;54636;51.684;5.142;2022-12-19T16:32:43;5.07;;;2.92;;
67839;SDS011;54636;51.684;5.142;2022-12-19T16:35:12;3.60;;;2.80;;
67839;SDS011;54636;51.684;5.142;2022-12-19T16:37:39;4.10;;;2.80;;
67839;SDS011;54636;51.684;5.142;2022-12-19T16:40:08;2.90;;;2.60;;
67839;SDS011;54636;51.684;5.142;2022-12-19T16:42:37;6.78;;;2.90;;
67839;SDS011;54636;51.684;5.142;2022-12-19T16:45:03;3.80;;;2.78;;
67839;SDS011;54636;51.684;5.142;2022-12-19T16:47:29;4.03;;;2.88;;
67839;SDS011;54636;51.684;5.142;2022-12-19T16:49:54;4.28;;;2.58;;
67839;SDS011;54636;51.684;5.142;2022-12-19T16:52:19;2.80;;;2.38;;
67839;SDS011;54636;51.684;5.142;2022-12-19T16:54:45;5.50;;;3.22;;
67839;SDS011;54636;51.684;5.142;2022-12-19T16:57:16;4.40;;;3.40;;
67839;SDS011;54636;51.684;5.142;2022-12-19T16:59:44;5.97;;;3.17;;
67839;SDS011;54636;51.684;5.142;2022-12-19T17:05:18;6.13;;;3.33;;
67839;SDS011;54636;51.684;5.142;2022-12-19T17:07:45;2.95;;;2.75;;
67839;SDS011;54636;51.684;5.142;2022-12-19T17:10:11;4.38;;;3.22;;
67839;SDS011;54636;51.684;5.142;2022-12-19T17:12:38;4.97;;;3.30;;
67839;SDS011;54636;51.684;5.142;2022-12-19T17:15:06;2.47;;;2.28;;
67839;SDS011;54636;51.684;5.142;2022-12-19T17:17:41;3.67;;;2.20;;
67839;SDS011;54636;51.684;5.142;2022-12-19T17:20:20;2.70;;;2.50;;
67839;SDS011;54636;51.684;5.142;2022-12-19T17:22:59;2.30;;;2.10;;
67839;SDS011;54636;51.684;5.142;2022-12-19T17:25:36;5.22;;;2.90;;
67839;SDS011;54636;51.684;5.142;2022-12-19T17:28:14;2.95;;;2.60;;
67839;SDS011;54636;51.684;5.142;2022-12-19T17:30:42;7.63;;;2.67;;
67839;SDS011;54636;51.684;5.142;2022-12-19T17:33:17;4.65;;;2.50;;